»·PEaware :: N454FX KPAE-KGEG

N454FX :: KPAE-KGEG

FLIGHT INFORMATION

Flight Status: Arrived
Operator: Privately registered:
United States
More flights under this callsign
Pilot: Mike V. (15104)
Aircraft: CESSNA 172 SKYHAWK
(C172)
More flights by this aircraft type
Origin: KPAE Snohomish Co
United States
Destination: KGEG Spokane Intl
United States
More flights between these airports :: More routes between these airports
Route: KPAE KS10 KGEG
File this flight plan on PilotEdge
Remarks:
Altitude:
(Current/Filed)
8,000ft
Speed:
(Current/Filed)
180kts
Departed: 07-Jul-18 07:34 PM
Arrived: 07-Jul-18 09:19 PM
Distance/Time
Traveled:
193nm/1:45
Distance/Time
To Go:
Arrived

Flight Plot

Page will automatically refresh every two minutes.

Flight plan parsing failed; only flown route is shown


Map Options




Map Legend


Flown Route
Filed Route
Departure Airport
Arrival Airport
Navaid (VOR, NDB)
Fix

Horizontal Profiles

Position Reports

Time Latitude Longitude Heading Altitude Ground
Speed
07-Jul-18 19:24 47.903352 -122.283261 1 584ft 0kts
07-Jul-18 19:25 47.903352 -122.283261 1 584ft 0kts
07-Jul-18 19:26 47.903352 -122.283261 1 584ft 0kts
07-Jul-18 19:27 47.903352 -122.283261 1 584ft 0kts
07-Jul-18 19:28 47.903352 -122.283261 1 584ft 0kts
07-Jul-18 19:29 47.903352 -122.283261 1 584ft 0kts
07-Jul-18 19:31 47.903352 -122.283261 1 584ft 0kts
07-Jul-18 19:32 47.903352 -122.283261 1 584ft 0kts
07-Jul-18 19:33 47.906159 -122.283443 313 583ft 9kts
07-Jul-18 19:34 47.906287 -122.284156 272 581ft 1kts
07-Jul-18 19:35 47.901668 -122.285374 177 572ft 70kts
07-Jul-18 19:36 47.887378 -122.271705 74 1378ft 86kts
07-Jul-18 19:37 47.895981 -122.218920 79 1601ft 125kts
07-Jul-18 19:38 47.900518 -122.182347 84 2464ft 91kts
07-Jul-18 19:39 47.903933 -122.141304 80 2909ft 120kts
07-Jul-18 19:40 47.905020 -122.075864 89 3444ft 113kts
07-Jul-18 19:41 47.905034 -122.043655 90 3697ft 117kts
07-Jul-18 19:42 47.904512 -121.978514 90 4230ft 118kts
07-Jul-18 19:43 47.904194 -121.945924 90 4497ft 117kts
07-Jul-18 19:44 47.903701 -121.897745 91 4937ft 114kts
07-Jul-18 19:45 47.903201 -121.850982 91 5433ft 112kts
07-Jul-18 19:46 47.902688 -121.804610 91 5931ft 112kts
07-Jul-18 19:47 47.902158 -121.758441 91 6430ft 111kts
07-Jul-18 19:48 47.901612 -121.712559 91 6929ft 110kts
07-Jul-18 19:49 47.901056 -121.667369 91 7427ft 108kts
07-Jul-18 19:50 47.900491 -121.622758 91 7924ft 107kts
07-Jul-18 19:51 47.899853 -121.573977 91 8066ft 121kts
07-Jul-18 19:52 47.899172 -121.523394 91 8267ft 122kts
07-Jul-18 19:53 47.898468 -121.472918 91 8467ft 121kts
07-Jul-18 19:54 47.897744 -121.422542 91 8667ft 121kts
07-Jul-18 19:55 47.896999 -121.372292 91 8866ft 121kts
07-Jul-18 19:56 47.896231 -121.321930 91 9066ft 121kts
07-Jul-18 19:57 47.895442 -121.271684 91 9302ft 119kts
07-Jul-18 19:58 47.894694 -121.225256 91 9821ft 104kts
07-Jul-18 19:59 47.893911 -121.178158 91 9929ft 123kts
07-Jul-18 20:00 47.893033 -121.126047 91 10015ft 121kts
07-Jul-18 20:01 47.892222 -121.079622 91 10412ft 115kts
07-Jul-18 20:02 47.891316 -121.028618 91 10426ft 126kts
07-Jul-18 20:03 47.890355 -120.975851 91 10428ft 128kts
07-Jul-18 20:04 47.889365 -120.922919 91 10428ft 128kts
07-Jul-18 20:05 47.888357 -120.870363 92 10427ft 128kts
07-Jul-18 20:06 47.887313 -120.817227 92 10427ft 128kts
07-Jul-18 20:07 47.886249 -120.764267 92 10427ft 128kts
07-Jul-18 20:08 47.885160 -120.711320 92 10427ft 128kts
07-Jul-18 20:09 47.884041 -120.658061 92 10427ft 128kts
07-Jul-18 20:10 47.882933 -120.606501 92 10593ft 122kts
07-Jul-18 20:11 47.881865 -120.557801 92 10917ft 114kts
07-Jul-18 20:12 47.880738 -120.507440 92 10931ft 126kts
07-Jul-18 20:13 47.879538 -120.454689 92 10933ft 127kts
07-Jul-18 20:14 47.878310 -120.401849 92 10933ft 127kts
07-Jul-18 20:15 47.877058 -120.349018 92 10933ft 127kts
07-Jul-18 20:16 47.875777 -120.296056 92 10933ft 127kts
07-Jul-18 20:17 47.874478 -120.243315 92 10932ft 127kts
07-Jul-18 20:18 47.873149 -120.190345 92 10932ft 127kts
07-Jul-18 20:19 47.871798 -120.137458 92 10932ft 127kts
07-Jul-18 20:20 47.870423 -120.084616 92 10932ft 127kts
07-Jul-18 20:21 47.869022 -120.031715 92 10932ft 127kts
07-Jul-18 20:22 47.867598 -119.978842 92 10932ft 127kts
07-Jul-18 20:23 47.864881 -119.926239 98 10932ft 127kts
07-Jul-18 20:24 47.859836 -119.874125 98 10970ft 124kts
07-Jul-18 20:25 47.856200 -119.834940 98 11879ft 68kts
07-Jul-18 20:26 47.853583 -119.806216 98 12272ft 71kts
07-Jul-18 20:27 47.850878 -119.777015 98 12679ft 71kts
07-Jul-18 20:28 47.848146 -119.747652 98 13071ft 72kts
07-Jul-18 20:29 47.845393 -119.718153 98 13456ft 72kts
07-Jul-18 20:30 47.842610 -119.688438 98 13828ft 72kts
07-Jul-18 20:31 47.839260 -119.653263 98 13969ft 103kts
07-Jul-18 20:32 47.834866 -119.606823 98 13999ft 120kts
07-Jul-18 20:33 47.830059 -119.556044 98 14006ft 126kts
07-Jul-18 20:34 47.825118 -119.504126 98 14007ft 127kts
07-Jul-18 20:35 47.820132 -119.451991 98 14007ft 127kts
07-Jul-18 20:36 47.815060 -119.399233 98 13927ft 131kts
07-Jul-18 20:37 47.809854 -119.345339 98 13827ft 131kts
07-Jul-18 20:38 47.804573 -119.290950 98 13671ft 134kts
07-Jul-18 20:39 47.799186 -119.235748 98 13472ft 135kts
07-Jul-18 20:40 47.793784 -119.180633 98 13269ft 133kts
07-Jul-18 20:41 47.788396 -119.125981 98 13069ft 133kts
07-Jul-18 20:42 47.782991 -119.071427 98 12869ft 133kts
07-Jul-18 20:43 47.777489 -119.016175 98 12589ft 136kts
07-Jul-18 20:44 47.771912 -118.960449 98 12290ft 136kts
07-Jul-18 20:45 47.766287 -118.904531 98 11989ft 136kts
07-Jul-18 20:46 47.760642 -118.848706 99 11635ft 138kts
07-Jul-18 20:47 47.754872 -118.791923 99 11235ft 139kts
07-Jul-18 20:48 47.749062 -118.735029 99 10834ft 139kts
07-Jul-18 20:49 47.743189 -118.677824 99 10355ft 141kts
07-Jul-18 20:50 47.737231 -118.620080 99 9855ft 141kts
07-Jul-18 20:51 47.731242 -118.562330 99 9353ft 141kts
07-Jul-18 20:52 47.725226 -118.504620 99 8804ft 143kts
07-Jul-18 20:53 47.719102 -118.446157 99 8203ft 143kts
07-Jul-18 20:54 47.712958 -118.387803 99 7603ft 143kts
07-Jul-18 20:55 47.706727 -118.328925 99 7002ft 144kts
07-Jul-18 20:56 47.700465 -118.270051 99 6417ft 143kts
07-Jul-18 20:57 47.694255 -118.211951 99 5915ft 142kts
07-Jul-18 20:58 47.688024 -118.153949 99 5414ft 142kts
07-Jul-18 20:59 47.681755 -118.095882 99 4913ft 142kts
07-Jul-18 21:00 47.675460 -118.037858 99 4412ft 142kts
07-Jul-18 21:01 47.669174 -117.980183 99 3990ft 138kts
07-Jul-18 21:02 47.663141 -117.925115 99 3782ft 130kts
07-Jul-18 21:03 47.657379 -117.872756 99 3580ft 128kts
07-Jul-18 21:04 47.651588 -117.820350 99 3380ft 128kts
07-Jul-18 21:05 47.645923 -117.769285 99 3368ft 123kts
07-Jul-18 21:06 47.640317 -117.718961 99 3369ft 123kts
07-Jul-18 21:07 47.638761 -117.670206 88 3564ft 119kts
07-Jul-18 21:08 47.631227 -117.623256 149 3436ft 127kts
07-Jul-18 21:09 47.599739 -117.623874 219 3658ft 123kts
07-Jul-18 21:10 47.575444 -117.657250 219 3860ft 117kts
07-Jul-18 21:11 47.550597 -117.688392 222 4049ft 117kts
07-Jul-18 21:12 47.526446 -117.720704 208 4274ft 114kts
07-Jul-18 21:13 47.522754 -117.689796 46 4469ft 119kts
07-Jul-18 21:14 47.546556 -117.652863 36 4339ft 126kts
07-Jul-18 21:15 47.575751 -117.623221 35 4177ft 127kts
07-Jul-18 21:16 47.604982 -117.592773 37 3895ft 134kts
07-Jul-18 21:17 47.634466 -117.559367 38 3502ft 125kts
07-Jul-18 21:18 47.651907 -117.526050 103 2943ft 102kts
07-Jul-18 21:19 47.634633 -117.512888 225 2490ft 82kts
07-Jul-18 21:20 47.627608 -117.523682 225 2335ft 0kts
07-Jul-18 21:21 47.625521 -117.523341 223 2340ft 8kts
07-Jul-18 21:22 47.624309 -117.522729 149 2345ft 9kts
07-Jul-18 21:23 47.623841 -117.522505 60 2347ft 0kts

Navigation Log

Ident Type
Flight plan parsing failed, navigation log unavailable